sensor_id;sensor_type;location;lat;lon;timestamp;pressure;altitude;pressure_sealevel;temperature;humidity
68654;BME280;55636;51.108;13.622;2023-09-19T00:01:05;99569.31;;;17.90;60.59
68654;BME280;55636;51.108;13.622;2023-09-19T00:02:09;99574.88;;;17.90;60.53
68654;BME280;55636;51.108;13.622;2023-09-19T00:03:13;99576.88;;;17.90;60.68
68654;BME280;55636;51.108;13.622;2023-09-19T00:04:16;99570.13;;;17.91;60.47
68654;BME280;55636;51.108;13.622;2023-09-19T00:05:21;99561.75;;;17.91;60.81
68654;BME280;55636;51.108;13.622;2023-09-19T00:06:29;99565.69;;;17.90;60.85
68654;BME280;55636;51.108;13.622;2023-09-19T00:07:33;99576.88;;;17.90;60.77
68654;BME280;55636;51.108;13.622;2023-09-19T00:08:39;99578.84;;;17.89;60.95
68654;BME280;55636;51.108;13.622;2023-09-19T00:09:41;99571.63;;;17.88;60.63
68654;BME280;55636;51.108;13.622;2023-09-19T00:10:46;99574.88;;;17.90;61.00
68654;BME280;55636;51.108;13.622;2023-09-19T00:11:49;99563.25;;;17.88;60.52
68654;BME280;55636;51.108;13.622;2023-09-19T00:12:55;99566.84;;;17.89;60.48
68654;BME280;55636;51.108;13.622;2023-09-19T00:13:57;99581.66;;;17.89;60.48
68654;BME280;55636;51.108;13.622;2023-09-19T00:15:03;99574.06;;;17.90;60.73
68654;BME280;55636;51.108;13.622;2023-09-19T00:16:10;99577.69;;;17.90;60.79
68654;BME280;55636;51.108;13.622;2023-09-19T00:17:13;99579.66;;;17.90;61.15
68654;BME280;55636;51.108;13.622;2023-09-19T00:18:19;99576.38;;;17.88;61.06
68654;BME280;55636;51.108;13.622;2023-09-19T00:19:25;99560.78;;;17.87;60.93
68654;BME280;55636;51.108;13.622;2023-09-19T00:20:27;99558.78;;;17.87;61.02
68654;BME280;55636;51.108;13.622;2023-09-19T00:21:32;99561.59;;;17.87;60.99
68654;BME280;55636;51.108;13.622;2023-09-19T00:22:34;99555.19;;;17.87;60.85
68654;BME280;55636;51.108;13.622;2023-09-19T00:23:37;99552.72;;;17.85;61.06
68654;BME280;55636;51.108;13.622;2023-09-19T00:24:40;99554.69;;;17.85;60.89
68654;BME280;55636;51.108;13.622;2023-09-19T00:25:42;99554.69;;;17.85;60.93
68654;BME280;55636;51.108;13.622;2023-09-19T00:26:45;99548.28;;;17.84;60.78
68654;BME280;55636;51.108;13.622;2023-09-19T00:27:49;99552.22;;;17.83;61.33
68654;BME280;55636;51.108;13.622;2023-09-19T00:28:54;99548.59;;;17.83;61.18
68654;BME280;55636;51.108;13.622;2023-09-19T00:29:59;99546.97;;;17.82;61.28
68654;BME280;55636;51.108;13.622;2023-09-19T00:31:02;99542.19;;;17.82;61.18
68654;BME280;55636;51.108;13.622;2023-09-19T00:32:07;99543.84;;;17.83;61.13
68654;BME280;55636;51.108;13.622;2023-09-19T00:33:09;99543.34;;;17.81;60.78
68654;BME280;55636;51.108;13.622;2023-09-19T00:34:13;99545.00;;;17.82;60.58
68654;BME280;55636;51.108;13.622;2023-09-19T00:35:17;99534.97;;;17.81;60.63
68654;BME280;55636;51.108;13.622;2023-09-19T00:36:19;99540.56;;;17.81;61.04
68654;BME280;55636;51.108;13.622;2023-09-19T00:37:22;99542.53;;;17.81;61.00
68654;BME280;55636;51.108;13.622;2023-09-19T00:38:24;99542.53;;;17.81;61.04
68654;BME280;55636;51.108;13.622;2023-09-19T00:39:29;99547.28;;;17.80;60.83
68654;BME280;55636;51.108;13.622;2023-09-19T00:40:34;99542.03;;;17.78;60.81
68654;BME280;55636;51.108;13.622;2023-09-19T00:41:37;99539.75;;;17.81;60.92
68654;BME280;55636;51.108;13.622;2023-09-19T00:42:47;99542.03;;;17.78;60.95
68654;BME280;55636;51.108;13.622;2023-09-19T00:43:50;99537.59;;;17.77;61.12
68654;BME280;55636;51.108;13.622;2023-09-19T00:44:54;99543.19;;;17.77;61.41
68654;BME280;55636;51.108;13.622;2023-09-19T00:45:56;99544.34;;;17.76;61.28
68654;BME280;55636;51.108;13.622;2023-09-19T00:46:59;99541.56;;;17.76;61.24
68654;BME280;55636;51.108;13.622;2023-09-19T00:48:02;99541.56;;;17.76;61.44
68654;BME280;55636;51.108;13.622;2023-09-19T00:49:07;99538.75;;;17.76;61.27
68654;BME280;55636;51.108;13.622;2023-09-19T00:50:11;99532.69;;;17.74;61.61
68654;BME280;55636;51.108;13.622;2023-09-19T00:51:17;99532.69;;;17.74;61.47
68654;BME280;55636;51.108;13.622;2023-09-19T00:52:23;99531.88;;;17.74;61.73
68654;BME280;55636;51.108;13.622;2023-09-19T00:53:26;99533.81;;;17.73;61.86
68654;BME280;55636;51.108;13.622;2023-09-19T00:54:29;99539.41;;;17.73;61.54
68654;BME280;55636;51.108;13.622;2023-09-19T00:55:32;99539.41;;;17.73;61.84
68654;BME280;55636;51.108;13.622;2023-09-19T00:56:35;99539.75;;;17.72;61.74
68654;BME280;55636;51.108;13.622;2023-09-19T00:57:40;99546.47;;;17.71;61.83
68654;BME280;55636;51.108;13.622;2023-09-19T00:58:43;99532.03;;;17.69;62.06
68654;BME280;55636;51.108;13.622;2023-09-19T00:59:46;99547.94;;;17.68;62.01
68654;BME280;55636;51.108;13.622;2023-09-19T01:00:51;99544.34;;;17.68;62.06
68654;BME280;55636;51.108;13.622;2023-09-19T01:01:56;99551.91;;;17.67;61.98
68654;BME280;55636;51.108;13.622;2023-09-19T01:02:59;99540.25;;;17.65;62.04
68654;BME280;55636;51.108;13.622;2023-09-19T01:04:03;99541.38;;;17.64;61.92
68654;BME280;55636;51.108;13.622;2023-09-19T01:05:06;99547.28;;;17.62;62.08
68654;BME280;55636;51.108;13.622;2023-09-19T01:06:09;99560.75;;;17.60;62.26
68654;BME280;55636;51.108;13.622;2023-09-19T01:07:13;99555.50;;;17.59;62.31
68654;BME280;55636;51.108;13.622;2023-09-19T01:08:17;99554.69;;;17.58;62.01
68654;BME280;55636;51.108;13.622;2023-09-19T01:09:20;99549.44;;;17.57;62.47
68654;BME280;55636;51.108;13.622;2023-09-19T01:10:23;99551.72;;;17.55;62.17
68654;BME280;55636;51.108;13.622;2023-09-19T01:11:39;99552.06;;;17.53;62.19
68654;BME280;55636;51.108;13.622;2023-09-19T01:12:54;99553.19;;;17.52;62.27
68654;BME280;55636;51.108;13.622;2023-09-19T01:14:15;99553.53;;;17.51;62.56
68654;BME280;55636;51.108;13.622;2023-09-19T01:16:50;99555.31;;;17.46;62.53
68654;BME280;55636;51.108;13.622;2023-09-19T01:18:39;99565.97;;;17.44;62.59
68654;BME280;55636;51.108;13.622;2023-09-19T01:19:55;99551.19;;;17.44;62.63
68654;BME280;55636;51.108;13.622;2023-09-19T01:28:26;99575.63;;;17.38;62.84
68654;BME280;55636;51.108;13.622;2023-09-19T01:29:45;99565.66;;;17.37;62.88
68654;BME280;55636;51.108;13.622;2023-09-19T01:30:51;99571.22;;;17.37;63.18
68654;BME280;55636;51.108;13.622;2023-09-19T01:32:04;99575.97;;;17.37;63.04
68654;BME280;55636;51.108;13.622;2023-09-19T01:33:07;99572.38;;;17.36;63.12
68654;BME280;55636;51.108;13.622;2023-09-19T01:34:10;99565.13;;;17.35;63.22
68654;BME280;55636;51.108;13.622;2023-09-19T01:35:12;99560.69;;;17.34;63.34
68654;BME280;55636;51.108;13.622;2023-09-19T01:36:15;99563.50;;;17.34;63.48
68654;BME280;55636;51.108;13.622;2023-09-19T01:37:20;99567.94;;;17.35;63.29
68654;BME280;55636;51.108;13.622;2023-09-19T01:38:26;99571.06;;;17.34;63.33
68654;BME280;55636;51.108;13.622;2023-09-19T01:39:29;99559.88;;;17.34;63.67
68654;BME280;55636;51.108;13.622;2023-09-19T01:40:41;99560.69;;;17.34;63.59
68654;BME280;55636;51.108;13.622;2023-09-19T01:46:00;99546.25;;;17.32;63.04
68654;BME280;55636;51.108;13.622;2023-09-19T01:47:13;99564.97;;;17.32;63.27
68654;BME280;55636;51.108;13.622;2023-09-19T01:48:35;99562.16;;;17.32;63.50
68654;BME280;55636;51.108;13.622;2023-09-19T01:49:50;99564.16;;;17.31;63.68
68654;BME280;55636;51.108;13.622;2023-09-19T01:51:01;99576.47;;;17.30;63.37
68654;BME280;55636;51.108;13.622;2023-09-19T01:52:12;99559.72;;;17.30;63.31
68654;BME280;55636;51.108;13.622;2023-09-19T01:53:26;99568.41;;;17.28;63.21
68654;BME280;55636;51.108;13.622;2023-09-19T01:54:33;99562.00;;;17.28;63.17
68654;BME280;55636;51.108;13.622;2023-09-19T01:55:42;99556.41;;;17.28;63.12
68654;BME280;55636;51.108;13.622;2023-09-19T01:56:50;99554.78;;;17.27;63.56
68654;BME280;55636;51.108;13.622;2023-09-19T01:58:01;99559.53;;;17.26;63.52
68654;BME280;55636;51.108;13.622;2023-09-19T01:59:11;99563.97;;;17.27;63.29
68654;BME280;55636;51.108;13.622;2023-09-19T02:00:16;99571.53;;;17.27;63.33
68654;BME280;55636;51.108;13.622;2023-09-19T02:01:22;99573.16;;;17.28;63.24
68654;BME280;55636;51.108;13.622;2023-09-19T02:02:27;99559.19;;;17.28;63.14
68654;BME280;55636;51.108;13.622;2023-09-19T02:03:31;99575.66;;;17.29;63.26
68654;BME280;55636;51.108;13.622;2023-09-19T02:04:36;99571.53;;;17.27;63.13
68654;BME280;55636;51.108;13.622;2023-09-19T02:05:38;99575.66;;;17.29;63.18
68654;BME280;55636;51.108;13.622;2023-09-19T02:06:41;99575.94;;;17.28;63.20
68654;BME280;55636;51.108;13.622;2023-09-19T02:07:44;99570.06;;;17.29;63.14
68654;BME280;55636;51.108;13.622;2023-09-19T02:08:47;99574.81;;;17.29;63.07
68654;BME280;55636;51.108;13.622;2023-09-19T02:09:49;99579.25;;;17.30;62.98
68654;BME280;55636;51.108;13.622;2023-09-19T02:10:52;99568.88;;;17.30;62.85
68654;BME280;55636;51.108;13.622;2023-09-19T02:11:55;99574.19;;;17.32;62.88
68654;BME280;55636;51.108;13.622;2023-09-19T02:12:58;99573.34;;;17.32;63.21
68654;BME280;55636;51.108;13.622;2023-09-19T02:14:01;99570.22;;;17.33;62.92
68654;BME280;55636;51.108;13.622;2023-09-19T02:15:05;99581.38;;;17.33;63.03
68654;BME280;55636;51.108;13.622;2023-09-19T02:16:10;99581.88;;;17.35;62.90
68654;BME280;55636;51.108;13.622;2023-09-19T02:17:13;99571.84;;;17.34;63.00
68654;BME280;55636;51.108;13.622;2023-09-19T02:18:16;99567.94;;;17.35;62.86
68654;BME280;55636;51.108;13.622;2023-09-19T02:19:19;99565.94;;;17.36;63.14
68654;BME280;55636;51.108;13.622;2023-09-19T02:20:24;99583.53;;;17.36;63.03
68654;BME280;55636;51.108;13.622;2023-09-19T02:21:28;99577.63;;;17.38;63.01
68654;BME280;55636;51.108;13.622;2023-09-19T02:22:31;99580.09;;;17.39;62.81
68654;BME280;55636;51.108;13.622;2023-09-19T02:23:34;99573.69;;;17.39;62.99
68654;BME280;55636;51.108;13.622;2023-09-19T02:24:37;99578.13;;;17.40;63.00
68654;BME280;55636;51.108;13.622;2023-09-19T02:25:40;99577.28;;;17.39;62.77
68654;BME280;55636;51.108;13.622;2023-09-19T02:26:43;99578.94;;;17.40;63.10
68654;BME280;55636;51.108;13.622;2023-09-19T02:27:46;99576.16;;;17.40;63.00
68654;BME280;55636;51.108;13.622;2023-09-19T02:28:48;99571.38;;;17.41;62.66
68654;BME280;55636;51.108;13.622;2023-09-19T02:29:51;99575.81;;;17.42;62.89
68654;BME280;55636;51.108;13.622;2023-09-19T02:30:54;99567.44;;;17.42;63.04
68654;BME280;55636;51.108;13.622;2023-09-19T02:31:57;99568.28;;;17.42;62.46
68654;BME280;55636;51.108;13.622;2023-09-19T02:33:00;99577.47;;;17.43;62.67
68654;BME280;55636;51.108;13.622;2023-09-19T02:34:04;99582.25;;;17.42;62.32
68654;BME280;55636;51.108;13.622;2023-09-19T02:35:08;99584.19;;;17.42;62.67
68654;BME280;55636;51.108;13.622;2023-09-19T02:36:13;99589.44;;;17.43;62.64
68654;BME280;55636;51.108;13.622;2023-09-19T02:37:19;99581.91;;;17.44;62.46
68654;BME280;55636;51.108;13.622;2023-09-19T02:38:22;99586.66;;;17.43;62.57
68654;BME280;55636;51.108;13.622;2023-09-19T02:39:27;99595.88;;;17.44;62.08
68654;BME280;55636;51.108;13.622;2023-09-19T02:40:30;99599.47;;;17.44;62.39
68654;BME280;55636;51.108;13.622;2023-09-19T02:41:32;99589.16;;;17.45;62.36
68654;BME280;55636;51.108;13.622;2023-09-19T02:42:35;99599.47;;;17.44;62.22
68654;BME280;55636;51.108;13.622;2023-09-19T02:43:37;99590.75;;;17.46;62.13
68654;BME280;55636;51.108;13.622;2023-09-19T02:44:40;99593.88;;;17.44;62.25
68654;BME280;55636;51.108;13.622;2023-09-19T02:45:43;99599.13;;;17.46;62.13
68654;BME280;55636;51.108;13.622;2023-09-19T02:46:46;99605.56;;;17.46;61.69
68654;BME280;55636;51.108;13.622;2023-09-19T02:47:51;99591.28;;;17.48;61.73
68654;BME280;55636;51.108;13.622;2023-09-19T02:48:53;99587.63;;;17.47;61.88
68654;BME280;55636;51.108;13.622;2023-09-19T02:49:57;99588.81;;;17.46;61.67
68654;BME280;55636;51.108;13.622;2023-09-19T02:50:59;99596.00;;;17.47;61.46
68654;BME280;55636;51.108;13.622;2023-09-19T02:52:03;99594.06;;;17.48;61.63
68654;BME280;55636;51.108;13.622;2023-09-19T02:53:06;99606.88;;;17.49;61.67
68654;BME280;55636;51.108;13.622;2023-09-19T02:54:09;99597.66;;;17.49;61.71
68654;BME280;55636;51.108;13.622;2023-09-19T02:55:12;99599.00;;;17.51;61.60
68654;BME280;55636;51.108;13.622;2023-09-19T02:56:19;99594.28;;;17.52;61.39
68654;BME280;55636;51.108;13.622;2023-09-19T02:57:22;99601.47;;;17.53;61.36
68654;BME280;55636;51.108;13.622;2023-09-19T02:58:26;99603.47;;;17.52;61.46
68654;BME280;55636;51.108;13.622;2023-09-19T02:59:31;99597.53;;;17.54;61.14
68654;BME280;55636;51.108;13.622;2023-09-19T03:00:34;99605.59;;;17.55;61.43
68654;BME280;55636;51.108;13.622;2023-09-19T03:01:37;99613.16;;;17.55;61.09
68654;BME280;55636;51.108;13.622;2023-09-19T03:02:40;99607.25;;;17.56;61.03
68654;BME280;55636;51.108;13.622;2023-09-19T03:03:44;99609.69;;;17.58;60.91
68654;BME280;55636;51.108;13.622;2023-09-19T03:04:48;99608.56;;;17.59;61.07
68654;BME280;55636;51.108;13.622;2023-09-19T03:05:53;99613.00;;;17.60;60.83
68654;BME280;55636;51.108;13.622;2023-09-19T03:06:57;99613.00;;;17.60;60.84
68654;BME280;55636;51.108;13.622;2023-09-19T03:08:03;99614.31;;;17.62;60.81
68654;BME280;55636;51.108;13.622;2023-09-19T03:09:06;99615.13;;;17.63;61.05
68654;BME280;55636;51.108;13.622;2023-09-19T03:10:17;99613.16;;;17.64;60.83
68654;BME280;55636;51.108;13.622;2023-09-19T03:11:20;99612.03;;;17.65;60.76
68654;BME280;55636;51.108;13.622;2023-09-19T03:12:29;99620.41;;;17.65;60.87
68654;BME280;55636;51.108;13.622;2023-09-19T03:13:32;99616.44;;;17.66;60.79
68654;BME280;55636;51.108;13.622;2023-09-19T03:14:35;99625.66;;;17.66;60.95
68654;BME280;55636;51.108;13.622;2023-09-19T03:15:41;99620.88;;;17.67;60.66
68654;BME280;55636;51.108;13.622;2023-09-19T03:16:46;99619.75;;;17.68;60.71
68654;BME280;55636;51.108;13.622;2023-09-19T03:17:50;99623.34;;;17.68;60.80
68654;BME280;55636;51.108;13.622;2023-09-19T03:18:57;99626.97;;;17.69;60.93
68654;BME280;55636;51.108;13.622;2023-09-19T03:20:04;99629.44;;;17.70;60.53
68654;BME280;55636;51.108;13.622;2023-09-19T03:21:11;99633.03;;;17.71;60.73
68654;BME280;55636;51.108;13.622;2023-09-19T03:22:16;99636.69;;;17.71;60.83
68654;BME280;55636;51.108;13.622;2023-09-19T03:23:19;99629.13;;;17.81;60.38
68654;BME280;55636;51.108;13.622;2023-09-19T03:24:21;99629.13;;;17.81;60.47
68654;BME280;55636;51.108;13.622;2023-09-19T03:25:24;99631.59;;;17.82;60.08
68654;BME280;55636;51.108;13.622;2023-09-19T03:26:28;99630.91;;;17.85;60.04
68654;BME280;55636;51.108;13.622;2023-09-19T03:27:31;99628.63;;;17.87;60.34
68654;BME280;55636;51.108;13.622;2023-09-19T03:28:34;99629.44;;;17.88;60.22
68654;BME280;55636;51.108;13.622;2023-09-19T03:29:37;99630.28;;;17.88;59.97
68654;BME280;55636;51.108;13.622;2023-09-19T03:30:41;99627.16;;;17.90;59.95
68654;BME280;55636;51.108;13.622;2023-09-19T03:31:44;99627.66;;;17.92;59.81
68654;BME280;55636;51.108;13.622;2023-09-19T03:32:48;99630.47;;;17.92;59.82
68654;BME280;55636;51.108;13.622;2023-09-19T03:33:53;99625.34;;;17.94;59.73
68654;BME280;55636;51.108;13.622;2023-09-19T03:34:56;99631.44;;;17.96;59.48
68654;BME280;55636;51.108;13.622;2023-09-19T03:36:01;99625.84;;;17.96;59.67
68654;BME280;55636;51.108;13.622;2023-09-19T03:37:07;99636.69;;;17.98;59.57
68654;BME280;55636;51.108;13.622;2023-09-19T03:38:11;99624.69;;;17.97;59.50
68654;BME280;55636;51.108;13.622;2023-09-19T03:39:14;99626.31;;;17.98;59.13
68654;BME280;55636;51.108;13.622;2023-09-19T03:40:18;99633.56;;;17.99;59.05
68654;BME280;55636;51.108;13.622;2023-09-19T03:41:23;99639.16;;;17.99;59.13
68654;BME280;55636;51.108;13.622;2023-09-19T03:42:26;99633.56;;;17.99;59.31
68654;BME280;55636;51.108;13.622;2023-09-19T03:43:29;99641.94;;;17.99;58.97
68654;BME280;55636;51.108;13.622;2023-09-19T03:44:31;99638.00;;;18.00;59.27
68654;BME280;55636;51.108;13.622;2023-09-19T03:45:34;99634.38;;;18.00;58.86
68654;BME280;55636;51.108;13.622;2023-09-19T03:46:36;99634.06;;;18.01;58.94
68654;BME280;55636;51.108;13.622;2023-09-19T03:47:40;99640.81;;;18.00;59.09
68654;BME280;55636;51.108;13.622;2023-09-19T03:48:45;99635.22;;;18.00;59.00
68654;BME280;55636;51.108;13.622;2023-09-19T03:49:48;99636.34;;;17.99;58.88
68654;BME280;55636;51.108;13.622;2023-09-19T03:50:50;99636.34;;;17.99;58.84
68654;BME280;55636;51.108;13.622;2023-09-19T03:51:54;99629.97;;;17.99;58.84
68654;BME280;55636;51.108;13.622;2023-09-19T03:52:57;99639.97;;;18.00;58.75
68654;BME280;55636;51.108;13.622;2023-09-19T03:54:00;99631.91;;;17.98;58.85
68654;BME280;55636;51.108;13.622;2023-09-19T03:55:02;99629.13;;;17.98;58.90
68654;BME280;55636;51.108;13.622;2023-09-19T03:56:06;99643.94;;;17.99;58.86
68654;BME280;55636;51.108;13.622;2023-09-19T03:57:10;99634.72;;;17.98;58.93
68654;BME280;55636;51.108;13.622;2023-09-19T03:58:14;99638.34;;;17.99;58.61
68654;BME280;55636;51.108;13.622;2023-09-19T03:59:17;99635.56;;;17.99;58.55
68654;BME280;55636;51.108;13.622;2023-09-19T04:00:20;99635.56;;;17.99;58.86
68654;BME280;55636;51.108;13.622;2023-09-19T04:01:25;99635.56;;;17.99;58.76
68654;BME280;55636;51.108;13.622;2023-09-19T04:02:30;99635.56;;;17.99;58.60
68654;BME280;55636;51.108;13.622;2023-09-19T04:03:35;99643.09;;;17.98;58.49
68654;BME280;55636;51.108;13.622;2023-09-19T04:04:49;99631.09;;;17.98;58.48
68654;BME280;55636;51.108;13.622;2023-09-19T04:05:52;99645.88;;;17.98;58.47
68654;BME280;55636;51.108;13.622;2023-09-19T04:06:54;99644.22;;;17.97;58.62
68654;BME280;55636;51.108;13.622;2023-09-19T04:07:58;99637.03;;;17.96;58.78
68654;BME280;55636;51.108;13.622;2023-09-19T04:09:02;99637.03;;;17.96;58.69
68654;BME280;55636;51.108;13.622;2023-09-19T04:10:08;99631.44;;;17.96;58.43
68654;BME280;55636;51.108;13.622;2023-09-19T04:11:12;99636.19;;;17.95;58.74
68654;BME280;55636;51.108;13.622;2023-09-19T04:12:15;99647.69;;;17.94;58.79
68654;BME280;55636;51.108;13.622;2023-09-19T04:13:19;99639.31;;;17.94;58.79
68654;BME280;55636;51.108;13.622;2023-09-19T04:14:22;99647.69;;;17.94;58.56
68654;BME280;55636;51.108;13.622;2023-09-19T04:15:27;99648.03;;;17.92;58.42
68654;BME280;55636;51.108;13.622;2023-09-19T04:16:29;99639.66;;;17.92;58.81
68654;BME280;55636;51.108;13.622;2023-09-19T04:17:33;99648.38;;;17.91;58.59
68654;BME280;55636;51.108;13.622;2023-09-19T04:18:36;99647.22;;;17.92;58.84
68654;BME280;55636;51.108;13.622;2023-09-19T04:19:41;99644.72;;;17.90;58.42
68654;BME280;55636;51.108;13.622;2023-09-19T04:20:50;99647.84;;;17.89;58.62
68654;BME280;55636;51.108;13.622;2023-09-19T04:21:52;99645.41;;;17.87;58.76
68654;BME280;55636;51.108;13.622;2023-09-19T04:22:55;99640.63;;;17.88;58.60
68654;BME280;55636;51.108;13.622;2023-09-19T04:23:57;99649.00;;;17.88;58.72
68654;BME280;55636;51.108;13.622;2023-09-19T04:25:00;99643.75;;;17.86;58.49
68654;BME280;55636;51.108;13.622;2023-09-19T04:26:02;99649.31;;;17.86;58.62
68654;BME280;55636;51.108;13.622;2023-09-19T04:27:07;99643.25;;;17.84;58.48
68654;BME280;55636;51.108;13.622;2023-09-19T04:28:09;99642.44;;;17.84;58.65
68654;BME280;55636;51.108;13.622;2023-09-19T04:29:13;99638.81;;;17.83;58.80
68654;BME280;55636;51.108;13.622;2023-09-19T04:30:16;99657.53;;;17.83;58.64
68654;BME280;55636;51.108;13.622;2023-09-19T04:31:18;99645.88;;;17.81;58.91
68654;BME280;55636;51.108;13.622;2023-09-19T04:32:23;99662.66;;;17.81;58.57
68654;BME280;55636;51.108;13.622;2023-09-19T04:33:25;99649.81;;;17.79;58.91
68654;BME280;55636;51.108;13.622;2023-09-19T04:34:29;99663.78;;;17.79;58.51
68654;BME280;55636;51.108;13.622;2023-09-19T04:35:32;99662.13;;;17.78;58.82
68654;BME280;55636;51.108;13.622;2023-09-19T04:36:35;99666.91;;;17.78;58.57
68654;BME280;55636;51.108;13.622;2023-09-19T04:37:39;99675.28;;;17.78;58.94
68654;BME280;55636;51.108;13.622;2023-09-19T04:38:42;99669.69;;;17.78;58.90
68654;BME280;55636;51.108;13.622;2023-09-19T04:39:48;99677.25;;;17.77;58.93
68654;BME280;55636;51.108;13.622;2023-09-19T04:40:56;99687.28;;;17.78;58.64
68654;BME280;55636;51.108;13.622;2023-09-19T04:41:59;99688.41;;;17.77;58.84
68654;BME280;55636;51.108;13.622;2023-09-19T04:43:01;99685.94;;;17.76;58.86
68654;BME280;55636;51.108;13.622;2023-09-19T04:44:05;99686.78;;;17.76;58.61
68654;BME280;55636;51.108;13.622;2023-09-19T04:45:08;99683.50;;;17.74;59.00
68654;BME280;55636;51.108;13.622;2023-09-19T04:46:12;99682.34;;;17.75;58.87
68654;BME280;55636;51.108;13.622;2023-09-19T04:47:17;99683.50;;;17.74;58.99
68654;BME280;55636;51.108;13.622;2023-09-19T04:48:20;99689.06;;;17.74;58.58
68654;BME280;55636;51.108;13.622;2023-09-19T04:49:22;99682.69;;;17.74;58.72
68654;BME280;55636;51.108;13.622;2023-09-19T04:50:24;99684.63;;;17.73;58.69
68654;BME280;55636;51.108;13.622;2023-09-19T04:51:29;99693.84;;;17.74;58.81
68654;BME280;55636;51.108;13.622;2023-09-19T04:52:36;99689.41;;;17.73;58.63
68654;BME280;55636;51.108;13.622;2023-09-19T04:53:43;99695.81;;;17.73;58.70
68654;BME280;55636;51.108;13.622;2023-09-19T04:54:46;99690.22;;;17.73;58.51
68654;BME280;55636;51.108;13.622;2023-09-19T04:55:51;99691.34;;;17.72;58.48
68654;BME280;55636;51.108;13.622;2023-09-19T04:56:58;99691.34;;;17.72;58.66
68654;BME280;55636;51.108;13.622;2023-09-19T04:58:02;99691.34;;;17.72;58.43
68654;BME280;55636;51.108;13.622;2023-09-19T04:59:05;99693.34;;;17.72;58.64
68654;BME280;55636;51.108;13.622;2023-09-19T05:00:08;99693.34;;;17.72;58.83
68654;BME280;55636;51.108;13.622;2023-09-19T05:01:14;99692.03;;;17.69;58.60
68654;BME280;55636;51.108;13.622;2023-09-19T05:02:18;99696.47;;;17.70;58.78
68654;BME280;55636;51.108;13.622;2023-09-19T05:03:21;99707.63;;;17.70;58.43
68654;BME280;55636;51.108;13.622;2023-09-19T05:04:24;99704.84;;;17.70;58.35
68654;BME280;55636;51.108;13.622;2023-09-19T05:05:27;99709.59;;;17.70;58.59
68654;BME280;55636;51.108;13.622;2023-09-19T05:06:30;99704.50;;;17.72;58.49
68654;BME280;55636;51.108;13.622;2023-09-19T05:07:34;99704.84;;;17.70;58.63
68654;BME280;55636;51.108;13.622;2023-09-19T05:08:36;99708.44;;;17.71;58.46
68654;BME280;55636;51.108;13.622;2023-09-19T05:09:38;99712.09;;;17.71;58.78
68654;BME280;55636;51.108;13.622;2023-09-19T05:10:44;99712.38;;;17.70;58.76
68654;BME280;55636;51.108;13.622;2023-09-19T05:11:47;99716.81;;;17.71;58.53
68654;BME280;55636;51.108;13.622;2023-09-19T05:12:53;99727.19;;;17.70;58.76
68654;BME280;55636;51.108;13.622;2023-09-19T05:13:55;99724.41;;;17.70;58.67
68654;BME280;55636;51.108;13.622;2023-09-19T05:14:58;99732.78;;;17.70;58.69
68654;BME280;55636;51.108;13.622;2023-09-19T05:16:01;99732.78;;;17.70;58.58
68654;BME280;55636;51.108;13.622;2023-09-19T05:17:04;99729.97;;;17.70;58.79
68654;BME280;55636;51.108;13.622;2023-09-19T05:18:07;99734.44;;;17.71;58.75
68654;BME280;55636;51.108;13.622;2023-09-19T05:19:09;99738.34;;;17.70;58.54
68654;BME280;55636;51.108;13.622;2023-09-19T05:20:13;99734.44;;;17.71;58.52
68654;BME280;55636;51.108;13.622;2023-09-19T05:21:20;99737.22;;;17.71;58.46
68654;BME280;55636;51.108;13.622;2023-09-19T05:22:24;99730.78;;;17.71;58.76
68654;BME280;55636;51.108;13.622;2023-09-19T05:23:28;99733.09;;;17.69;58.50
68654;BME280;55636;51.108;13.622;2023-09-19T05:24:33;99737.50;;;17.70;58.82
68654;BME280;55636;51.108;13.622;2023-09-19T05:25:39;99737.50;;;17.70;58.96
68654;BME280;55636;51.108;13.622;2023-09-19T05:26:42;99740.00;;;17.71;58.72
68654;BME280;55636;51.108;13.622;2023-09-19T05:27:45;99733.59;;;17.71;58.50
68654;BME280;55636;51.108;13.622;2023-09-19T05:28:48;99731.94;;;17.70;58.66
68654;BME280;55636;51.108;13.622;2023-09-19T05:29:50;99735.56;;;17.70;58.86
68654;BME280;55636;51.108;13.622;2023-09-19T05:30:55;99727.19;;;17.70;58.87
68654;BME280;55636;51.108;13.622;2023-09-19T05:31:57;99738.34;;;17.70;58.63
68654;BME280;55636;51.108;13.622;2023-09-19T05:33:00;99735.91;;;17.69;58.69
68654;BME280;55636;51.108;13.622;2023-09-19T05:34:02;99735.91;;;17.69;58.86
68654;BME280;55636;51.108;13.622;2023-09-19T05:35:05;99733.91;;;17.69;58.97
68654;BME280;55636;51.108;13.622;2023-09-19T05:36:11;99743.94;;;17.70;58.94
68654;BME280;55636;51.108;13.622;2023-09-19T05:37:14;99741.97;;;17.71;58.53
68654;BME280;55636;51.108;13.622;2023-09-19T05:38:18;99743.94;;;17.70;59.03
68654;BME280;55636;51.108;13.622;2023-09-19T05:39:21;99748.69;;;17.70;58.91
68654;BME280;55636;51.108;13.622;2023-09-19T05:40:25;99745.91;;;17.70;58.72
68654;BME280;55636;51.108;13.622;2023-09-19T05:41:28;99747.53;;;17.71;58.82
68654;BME280;55636;51.108;13.622;2023-09-19T05:42:30;99753.97;;;17.71;58.69
68654;BME280;55636;51.108;13.622;2023-09-19T05:43:34;99755.13;;;17.70;59.03
68654;BME280;55636;51.108;13.622;2023-09-19T05:44:40;99749.19;;;17.72;59.00
68654;BME280;55636;51.108;13.622;2023-09-19T05:45:42;99756.78;;;17.71;58.99
68654;BME280;55636;51.108;13.622;2023-09-19T05:46:45;99759.56;;;17.71;58.74
68654;BME280;55636;51.108;13.622;2023-09-19T05:47:51;99758.72;;;17.71;58.68
68654;BME280;55636;51.108;13.622;2023-09-19T05:48:58;99763.97;;;17.72;59.00
68654;BME280;55636;51.108;13.622;2023-09-19T05:50:00;99767.63;;;17.73;58.98
68654;BME280;55636;51.108;13.622;2023-09-19T05:51:03;99761.19;;;17.72;58.94